createdAt,value
2022-11-15T15:19:31.905Z,37.24
2022-11-15T15:21:37.471Z,39.54
2022-11-15T15:23:39.757Z,40.32
2022-11-15T15:25:41.850Z,40.52
2022-11-15T15:27:43.823Z,32.44
2022-11-15T15:29:45.887Z,35.84
2022-11-15T15:31:47.878Z,40.63
2022-11-15T15:33:49.833Z,44.57
2022-11-15T15:35:51.809Z,47.83
2022-11-15T15:37:53.767Z,52.11
2022-11-15T15:39:55.743Z,54.99
2022-11-15T15:41:57.691Z,57.92
2022-11-15T15:43:59.755Z,60.28
2022-11-15T15:46:01.739Z,62.34
2022-11-15T15:48:03.721Z,64.90
2022-11-15T15:50:05.808Z,65.51
2022-11-15T15:52:07.749Z,66.63
2022-11-15T15:54:09.685Z,68.06
2022-11-15T15:56:11.881Z,69.34
2022-11-15T15:58:13.824Z,70.20
2022-11-15T16:00:15.791Z,71.00
2022-11-15T16:02:17.927Z,71.76
2022-11-15T16:04:19.869Z,72.94
2022-11-15T16:06:21.839Z,73.15
2022-11-15T16:08:23.887Z,73.51
2022-11-15T16:10:25.973Z,74.34
2022-11-15T16:12:28.095Z,74.41
2022-11-15T16:14:30.210Z,74.95
2022-11-15T16:16:32.155Z,74.92
2022-11-15T16:18:34.533Z,75.54
2022-11-15T16:20:36.887Z,76.08
2022-11-15T16:22:38.870Z,76.51
2022-11-15T16:24:40.827Z,76.96
2022-11-15T16:26:43.004Z,77.38
2022-11-15T16:28:44.956Z,77.53
2022-11-15T16:30:49.020Z,77.43
2022-11-15T16:32:54.508Z,77.39
2022-11-15T16:34:56.548Z,77.49
2022-11-15T16:36:59.450Z,77.78
2022-11-15T16:39:01.602Z,77.42
2022-11-15T16:41:03.622Z,77.53
2022-11-15T16:43:05.579Z,77.89
2022-11-15T16:45:07.648Z,78.01
2022-11-15T16:47:09.606Z,77.91
2022-11-15T16:49:11.564Z,77.99
2022-11-15T16:51:13.655Z,78.05
2022-11-15T16:53:15.603Z,77.88
2022-11-15T16:55:17.554Z,77.71
2022-11-15T16:57:19.606Z,78.12
2022-11-15T16:59:21.570Z,78.33
2022-11-15T17:01:23.568Z,78.66
2022-11-15T17:03:25.820Z,79.13
2022-11-15T17:05:27.784Z,79.71
2022-11-15T17:07:30.099Z,79.80
2022-11-15T17:09:32.195Z,79.98
2022-11-15T17:11:34.154Z,80.57
2022-11-15T17:13:36.102Z,80.74
2022-11-15T17:15:38.127Z,80.82
2022-11-15T17:17:40.114Z,80.43
2022-11-15T17:19:42.058Z,80.51
2022-11-15T17:21:44.168Z,80.51
2022-11-15T17:23:46.146Z,80.61
2022-11-15T17:25:48.083Z,80.41
2022-11-15T17:27:50.218Z,80.59
2022-11-15T17:29:52.164Z,80.86
2022-11-15T17:31:54.148Z,80.83
2022-11-15T17:33:56.335Z,80.47
2022-11-15T17:35:58.400Z,81.09
2022-11-15T17:38:00.262Z,80.80
2022-11-15T17:40:02.324Z,80.74
2022-11-15T17:42:04.295Z,80.98
2022-11-15T17:44:06.330Z,81.42
2022-11-15T17:46:08.346Z,81.09
2022-11-15T17:48:10.744Z,81.18
2022-11-15T17:50:12.700Z,81.54
2022-11-15T17:52:14.770Z,81.36
2022-11-15T17:54:16.744Z,81.33
2022-11-15T17:56:18.690Z,81.06
2022-11-15T17:58:21.018Z,81.79
2022-11-15T18:00:22.954Z,81.88
2022-11-15T18:02:24.915Z,82.44
2022-11-15T18:04:26.915Z,82.53
2022-11-15T18:06:28.925Z,82.53
2022-11-15T18:08:30.894Z,82.55
2022-11-15T18:10:32.853Z,82.64
2022-11-15T18:12:34.792Z,81.76
2022-11-15T18:14:36.775Z,81.62
2022-11-15T18:16:38.857Z,82.23
2022-11-15T18:18:40.852Z,81.73
2022-11-15T18:20:42.948Z,81.65
2022-11-15T18:22:44.780Z,82.19
2022-11-15T18:24:46.728Z,82.29
2022-11-15T18:26:48.739Z,82.37
2022-11-15T18:28:50.855Z,82.13
2022-11-15T18:30:52.868Z,81.86
2022-11-15T18:32:55.034Z,81.96
2022-11-15T18:34:56.988Z,81.93
2022-11-15T18:36:58.973Z,81.89
2022-11-15T18:39:00.963Z,82.02
2022-11-15T18:41:03.071Z,81.77
2022-11-15T18:43:05.102Z,82.57
2022-11-15T18:45:07.075Z,82.62
2022-11-15T18:47:09.133Z,82.46
2022-11-15T18:49:11.141Z,82.49
2022-11-15T18:51:13.162Z,82.65
2022-11-15T18:53:15.108Z,83.14
2022-11-15T18:55:17.055Z,83.33
2022-11-15T18:57:19.011Z,83.73
2022-11-15T18:59:21.070Z,83.21
2022-11-15T19:01:23.141Z,82.86
2022-11-15T19:03:25.253Z,82.74
2022-11-15T19:05:27.248Z,82.97
2022-11-15T19:07:29.263Z,83.11
2022-11-15T19:09:31.381Z,83.40
2022-11-15T19:11:33.448Z,83.68
2022-11-15T19:13:35.567Z,84.09
2022-11-15T19:15:37.691Z,84.22
2022-11-15T19:17:39.546Z,84.07
2022-11-15T19:19:41.533Z,83.45
2022-11-15T19:21:43.488Z,83.38
2022-11-15T19:23:45.523Z,83.41
2022-11-15T19:25:47.525Z,83.80
2022-11-15T19:27:49.844Z,83.82
2022-11-15T19:29:51.774Z,83.27
2022-11-15T19:31:53.743Z,82.54
2022-11-15T19:33:55.690Z,82.53
2022-11-15T19:35:57.708Z,82.63
2022-11-15T19:37:59.738Z,82.56
2022-11-15T19:40:01.730Z,82.30
2022-11-15T19:42:03.803Z,82.41
2022-11-15T19:44:05.907Z,82.25
2022-11-15T19:46:07.855Z,82.45
2022-11-15T19:48:09.794Z,82.83
2022-11-15T19:50:11.845Z,83.00
2022-11-15T19:52:13.784Z,83.36
2022-11-15T19:54:15.818Z,83.12
2022-11-15T19:56:17.883Z,83.13
2022-11-15T19:58:19.858Z,82.84
2022-11-15T20:00:21.896Z,83.34
2022-11-15T20:02:23.867Z,84.04
2022-11-15T20:04:25.985Z,84.50
2022-11-15T20:06:28.136Z,84.20
2022-11-15T20:08:30.298Z,84.38
2022-11-15T20:10:32.425Z,84.08
2022-11-15T20:12:34.322Z,84.36
2022-11-15T20:14:36.285Z,84.43
2022-11-15T20:16:38.276Z,84.82
2022-11-15T20:18:40.325Z,84.57
2022-11-15T20:20:42.263Z,84.48
2022-11-15T20:22:44.265Z,84.89
2022-11-15T20:24:46.396Z,84.95
2022-11-15T20:26:48.389Z,85.69
2022-11-15T20:28:50.376Z,85.36
2022-11-15T20:30:52.329Z,85.34
2022-11-15T20:32:54.280Z,84.74
2022-11-15T20:34:56.231Z,84.69
2022-11-15T20:36:58.205Z,84.89
2022-11-15T20:39:00.231Z,85.34
2022-11-15T20:41:02.197Z,85.11
2022-11-15T20:43:04.328Z,85.35
2022-11-15T20:45:06.433Z,85.17
2022-11-15T20:47:08.411Z,85.41
2022-11-15T20:49:10.522Z,86.03
2022-11-15T20:51:12.514Z,86.16
2022-11-15T20:53:14.480Z,85.86
2022-11-15T20:55:16.835Z,85.98
2022-11-15T20:57:18.794Z,85.38
2022-11-15T20:59:20.767Z,85.36
2022-11-15T21:01:22.916Z,85.64
2022-11-15T21:03:24.962Z,85.59
2022-11-15T21:05:26.962Z,85.66
2022-11-15T21:07:29.139Z,85.34
2022-11-15T21:09:31.114Z,86.55
2022-11-15T21:11:33.079Z,86.29
2022-11-15T21:13:35.050Z,85.56
2022-11-15T21:15:37.009Z,86.00
2022-11-15T21:17:39.010Z,85.96
2022-11-15T21:19:41.078Z,86.32
2022-11-15T21:21:43.047Z,85.80
2022-11-15T21:23:45.004Z,85.93
2022-11-15T21:25:47.059Z,86.34
2022-11-15T21:27:49.028Z,86.70
2022-11-15T21:29:51.004Z,85.93
2022-11-15T21:31:53.066Z,85.72
2022-11-15T21:33:55.053Z,85.57
2022-11-15T21:35:56.991Z,85.48
2022-11-15T21:37:59.171Z,85.79
2022-11-15T21:40:01.181Z,85.36
2022-11-15T21:42:03.137Z,85.05
2022-11-15T21:44:05.110Z,84.87
2022-11-15T21:46:07.060Z,84.79
2022-11-15T21:48:09.010Z,85.26
2022-11-15T21:50:10.969Z,85.99
2022-11-15T21:52:12.973Z,85.48
2022-11-15T21:54:14.935Z,85.14
2022-11-15T21:56:16.970Z,86.16
2022-11-15T21:58:18.927Z,86.41
2022-11-15T22:00:20.887Z,86.28
2022-11-15T22:02:22.966Z,85.85
2022-11-15T22:04:24.949Z,85.93
2022-11-15T22:06:26.963Z,85.42
2022-11-15T22:08:29.117Z,86.31
2022-11-15T22:10:31.115Z,86.87
2022-11-15T22:12:33.055Z,86.63
2022-11-15T22:14:35.107Z,85.90
2022-11-15T22:16:37.094Z,85.92
2022-11-15T22:18:39.366Z,86.46
2022-11-15T22:20:45.378Z,87.14
2022-11-15T22:22:47.373Z,87.04
2022-11-15T22:24:49.303Z,87.26
2022-11-15T22:26:51.388Z,87.37
2022-11-15T22:28:53.333Z,86.91
2022-11-15T22:30:55.288Z,86.59
2022-11-15T22:32:57.427Z,86.76
2022-11-15T22:34:59.377Z,86.92
2022-11-15T22:39:23.357Z,87.81
2022-11-15T22:41:25.299Z,86.95
2022-11-15T22:43:27.317Z,87.19
2022-11-15T22:45:29.331Z,87.32
2022-11-15T22:47:31.272Z,86.85
2022-11-15T22:49:33.326Z,87.53
2022-11-15T22:51:35.358Z,87.16
2022-11-15T22:53:37.311Z,86.85
2022-11-15T22:55:39.282Z,86.83
2022-11-15T22:57:41.350Z,86.05
2022-11-15T22:59:43.307Z,85.69
2022-11-15T23:01:45.267Z,85.76
2022-11-15T23:03:47.340Z,86.57
2022-11-15T23:05:49.311Z,86.17
2022-11-15T23:07:51.278Z,85.97
2022-11-15T23:09:53.362Z,85.09
2022-11-15T23:11:55.311Z,85.01
2022-11-15T23:13:57.271Z,84.99
2022-11-15T23:15:59.320Z,85.65
2022-11-15T23:18:01.279Z,85.62
2022-11-15T23:20:22.134Z,86.05
2022-11-15T23:22:25.284Z,86.59
2022-11-15T23:24:27.234Z,86.50
2022-11-15T23:26:29.192Z,86.54
2022-11-15T23:28:31.571Z,87.59
2022-11-15T23:30:33.721Z,88.03
2022-11-15T23:32:35.655Z,87.73
2022-11-15T23:34:37.704Z,88.59
2022-11-15T23:36:39.671Z,88.56
2022-11-15T23:38:41.619Z,88.01
2022-11-15T23:40:43.582Z,87.75
2022-11-15T23:42:45.549Z,88.39
2022-11-15T23:44:47.479Z,88.44
2022-11-15T23:46:49.563Z,88.69
2022-11-15T23:48:51.514Z,89.28
2022-11-15T23:50:53.639Z,89.41
2022-11-15T23:52:55.650Z,89.34
2022-11-15T23:54:57.598Z,89.02
2022-11-15T23:56:59.532Z,89.00
2022-11-15T23:59:01.503Z,89.21
